Time;durP1;ratioP1;P1;durP2;ratioP2;P2;SDS_P1;SDS_P2;PMS_P1;PMS_P2;Temp;Humidity;BMP_temperature;BMP_pressure;BME280_temperature;BME280_humidity;BME280_pressure;Samples;Min_cycle;Max_cycle;Signal;HPM_P1;HPM_P2
2023/12/30 00:01:57;;;;;;;8.85;2.60;;;5.50;99.90;;;;;;5092434;28;20439;-82
2023/12/30 00:04:24;;;;;;;10.88;2.42;;;5.50;99.90;;;;;;5090903;28;20071;-81
2023/12/30 00:06:52;;;;;;;7.32;1.95;;;5.50;99.90;;;;;;5089287;28;20093;-82
2023/12/30 00:09:18;;;;;;;11.68;2.22;;;5.50;99.90;;;;;;5091216;28;20076;-82
2023/12/30 00:11:47;;;;;;;11.10;2.55;;;5.50;99.90;;;;;;5091446;28;20499;-81
2023/12/30 00:14:14;;;;;;;15.02;2.65;;;5.50;99.90;;;;;;5091777;28;20046;-81
2023/12/30 00:16:41;;;;;;;7.50;1.85;;;5.50;99.90;;;;;;5091159;28;20052;-81
2023/12/30 00:19:08;;;;;;;15.10;2.20;;;5.50;99.90;;;;;;5093456;28;20054;-82
2023/12/30 00:21:35;;;;;;;11.48;1.70;;;5.50;99.90;;;;;;5094441;28;20040;-81
2023/12/30 00:24:03;;;;;;;7.88;1.98;;;5.70;99.90;;;;;;5094897;28;20043;-82
2023/12/30 00:26:30;;;;;;;11.90;1.83;;;5.50;99.90;;;;;;5094891;28;20048;-82
2023/12/30 00:28:58;;;;;;;6.78;1.75;;;5.50;99.90;;;;;;5094534;28;20048;-81
2023/12/30 00:31:25;;;;;;;14.32;2.03;;;5.50;99.90;;;;;;5095308;28;20565;-82
2023/12/30 00:33:52;;;;;;;9.73;2.30;;;5.50;99.90;;;;;;5094288;28;20516;-83
2023/12/30 00:36:19;;;;;;;12.48;2.10;;;5.50;99.90;;;;;;5093913;28;20569;-82
2023/12/30 00:38:46;;;;;;;7.82;2.15;;;5.40;99.90;;;;;;5094675;28;20505;-84
2023/12/30 00:41:13;;;;;;;12.55;2.13;;;5.40;99.90;;;;;;5094307;28;20058;-83
2023/12/30 00:43:41;;;;;;;12.15;2.47;;;5.40;99.90;;;;;;5094120;28;20052;-83
2023/12/30 00:46:10;;;;;;;10.35;2.10;;;5.40;99.90;;;;;;5093020;28;20085;-81
2023/12/30 00:48:37;;;;;;;8.35;2.40;;;5.40;99.90;;;;;;5093062;28;20496;-81
2023/12/30 00:51:04;;;;;;;9.43;2.13;;;5.60;99.90;;;;;;5094458;28;20052;-81
2023/12/30 00:53:31;;;;;;;12.02;2.50;;;5.50;99.90;;;;;;5093993;28;20044;-82
2023/12/30 00:55:58;;;;;;;8.50;2.42;;;5.50;99.90;;;;;;5093508;28;20056;-81
2023/12/30 00:58:25;;;;;;;9.23;2.28;;;5.50;99.90;;;;;;5094088;28;20052;-82
2023/12/30 01:00:52;;;;;;;11.77;2.28;;;5.50;99.90;;;;;;5094142;28;20052;-82
2023/12/30 01:03:20;;;;;;;6.93;2.40;;;5.50;99.90;;;;;;5093713;28;20047;-82
2023/12/30 01:05:47;;;;;;;10.73;2.10;;;5.90;99.90;;;;;;5093927;28;20048;-81
2023/12/30 01:08:14;;;;;;;6.30;1.80;;;5.50;99.90;;;;;;5091942;28;20039;-81
2023/12/30 01:10:41;;;;;;;8.38;2.28;;;5.50;99.90;;;;;;5093274;28;20492;-81
2023/12/30 01:13:09;;;;;;;7.80;2.30;;;5.40;99.90;;;;;;5093503;28;20074;-82
2023/12/30 01:15:36;;;;;;;9.35;2.63;;;5.40;99.90;;;;;;5094977;28;20052;-81
2023/12/30 01:18:03;;;;;;;6.85;2.40;;;5.60;99.90;;;;;;5093121;28;20048;-83
2023/12/30 01:20:32;;;;;;;5.50;1.83;;;5.50;99.90;;;;;;5093778;28;20501;-82
2023/12/30 01:22:59;;;;;;;14.48;2.05;;;5.50;99.90;;;;;;5093743;28;20056;-83
2023/12/30 01:25:25;;;;;;;8.40;1.80;;;5.60;99.90;;;;;;5092884;28;20040;-84
2023/12/30 01:27:52;;;;;;;5.78;1.83;;;5.40;99.90;;;;;;5093242;28;20093;-83
2023/12/30 01:30:19;;;;;;;6.68;2.05;;;5.40;99.90;;;;;;5092301;28;20056;-84
2023/12/30 01:32:46;;;;;;;8.93;1.83;;;5.50;99.90;;;;;;5093144;28;20048;-83
2023/12/30 01:35:14;;;;;;;7.28;2.15;;;5.50;99.90;;;;;;5090989;28;20044;-82
2023/12/30 01:37:43;;;;;;;5.72;1.98;;;5.50;99.90;;;;;;5094413;28;20056;-82
2023/12/30 01:40:11;;;;;;;8.27;1.92;;;5.50;99.90;;;;;;5092936;28;20065;-82
2023/12/30 01:42:41;;;;;;;9.27;2.72;;;5.50;99.90;;;;;;5091170;28;20051;-81
2023/12/30 01:45:08;;;;;;;7.93;2.00;;;5.60;99.90;;;;;;5092448;28;20075;-82
2023/12/30 01:47:36;;;;;;;4.72;1.92;;;5.50;99.90;;;;;;5093399;28;20044;-83
2023/12/30 01:50:05;;;;;;;11.88;2.80;;;5.50;99.90;;;;;;5091069;28;20075;-82
2023/12/30 01:52:32;;;;;;;9.88;2.90;;;5.50;99.90;;;;;;5092704;28;20052;-83
2023/12/30 01:55:01;;;;;;;8.38;1.90;;;5.50;99.90;;;;;;5092796;28;20044;-82
2023/12/30 01:57:28;;;;;;;17.17;2.97;;;5.50;99.90;;;;;;5092626;28;20058;-81
2023/12/30 01:59:55;;;;;;;7.00;2.78;;;5.50;99.90;;;;;;5092582;28;20055;-82
2023/12/30 02:02:22;;;;;;;8.40;2.47;;;5.50;99.90;;;;;;5092604;28;20090;-83
2023/12/30 02:04:49;;;;;;;10.50;2.17;;;5.60;99.90;;;;;;5092383;28;20044;-81
2023/12/30 02:07:15;;;;;;;10.73;2.85;;;5.60;99.90;;;;;;5092792;28;20403;-80
2023/12/30 02:09:42;;;;;;;10.23;1.80;;;5.70;99.90;;;;;;5092604;28;20048;-81
2023/12/30 02:12:11;;;;;;;6.68;2.15;;;5.80;99.90;;;;;;5093454;28;20112;-80
2023/12/30 02:14:38;;;;;;;7.63;1.92;;;5.80;99.90;;;;;;5092575;28;20059;-80
2023/12/30 02:17:05;;;;;;;10.38;2.33;;;5.90;99.90;;;;;;5092607;28;20051;-83
2023/12/30 02:19:33;;;;;;;12.68;2.90;;;5.90;99.90;;;;;;5090519;28;20052;-81
2023/12/30 02:22:00;;;;;;;11.65;2.47;;;6.00;99.90;;;;;;5091980;28;20094;-81
2023/12/30 02:24:28;;;;;;;11.25;2.08;;;6.00;99.90;;;;;;5092829;28;20051;-82
2023/12/30 02:26:55;;;;;;;7.72;1.85;;;6.10;99.90;;;;;;5090203;28;20036;-81
2023/12/30 02:29:22;;;;;;;7.95;1.92;;;6.40;99.90;;;;;;5092096;28;20055;-81
2023/12/30 02:31:49;;;;;;;10.65;2.10;;;6.10;99.90;;;;;;5093450;28;20044;-82
2023/12/30 02:34:15;;;;;;;12.90;2.67;;;6.10;99.90;;;;;;5091713;28;20044;-82
2023/12/30 02:36:43;;;;;;;6.57;2.03;;;6.20;99.90;;;;;;5092243;28;20044;-82
2023/12/30 02:39:10;;;;;;;10.70;2.03;;;6.20;99.90;;;;;;5092166;28;20534;-81
2023/12/30 02:41:39;;;;;;;12.45;2.30;;;6.20;99.90;;;;;;5091351;28;20131;-82
2023/12/30 02:44:06;;;;;;;9.27;2.60;;;6.30;99.90;;;;;;5092339;28;20443;-81
2023/12/30 02:46:33;;;;;;;8.25;1.98;;;6.30;99.90;;;;;;5092151;28;20044;-81
2023/12/30 02:49:03;;;;;;;9.38;2.42;;;6.30;99.90;;;;;;5091544;28;20051;-82
2023/12/30 02:51:30;;;;;;;8.70;1.58;;;6.30;99.90;;;;;;5092045;28;20059;-82
2023/12/30 02:53:57;;;;;;;10.43;2.10;;;6.40;99.90;;;;;;5092138;28;20161;-82
2023/12/30 02:56:25;;;;;;;11.43;2.40;;;6.40;99.90;;;;;;5091142;28;20061;-82
2023/12/30 02:58:56;;;;;;;9.35;2.78;;;6.40;99.90;;;;;;5091564;28;20044;-82
2023/12/30 03:01:25;;;;;;;10.95;2.67;;;6.40;99.90;;;;;;5090180;28;20105;-81
2023/12/30 03:03:53;;;;;;;10.48;2.28;;;6.40;99.90;;;;;;5088730;28;20048;-82
2023/12/30 03:06:21;;;;;;;8.52;2.25;;;6.50;99.90;;;;;;5091401;28;20069;-80
2023/12/30 03:08:48;;;;;;;7.30;2.15;;;6.40;99.90;;;;;;5091494;28;20043;-81
2023/12/30 03:11:15;;;;;;;8.43;2.10;;;6.50;99.90;;;;;;5090787;28;20044;-80
2023/12/30 03:13:42;;;;;;;8.90;2.20;;;6.60;99.90;;;;;;5091759;28;20052;-81
2023/12/30 03:16:13;;;;;;;8.85;2.05;;;6.60;99.90;;;;;;5091661;28;20056;-81
2023/12/30 03:18:40;;;;;;;13.32;2.20;;;6.80;99.90;;;;;;5090892;28;20105;-81
2023/12/30 03:21:08;;;;;;;8.55;2.13;;;6.60;99.90;;;;;;5091465;28;20047;-81
2023/12/30 03:23:36;;;;;;;11.90;2.70;;;6.60;99.90;;;;;;5089200;28;20485;-81
2023/12/30 03:26:03;;;;;;;8.85;1.90;;;6.80;99.90;;;;;;5091216;28;20044;-82
2023/12/30 03:28:30;;;;;;;7.93;2.47;;;6.70;99.90;;;;;;5089059;28;20052;-82
2023/12/30 03:30:57;;;;;;;11.48;2.50;;;6.70;99.90;;;;;;5090460;28;20570;-82
2023/12/30 03:33:25;;;;;;;13.55;2.35;;;6.70;99.90;;;;;;5091583;28;20048;-82
2023/12/30 03:35:52;;;;;;;9.68;2.10;;;6.70;99.90;;;;;;5091274;28;20048;-81
2023/12/30 03:38:19;;;;;;;12.80;2.70;;;6.70;99.90;;;;;;5091078;28;20048;-82
2023/12/30 03:40:46;;;;;;;8.32;2.40;;;6.70;99.90;;;;;;5089258;28;20040;-81
2023/12/30 03:43:14;;;;;;;13.68;2.40;;;6.70;99.90;;;;;;5091001;28;20044;-82
2023/12/30 03:45:41;;;;;;;8.15;2.88;;;6.70;99.90;;;;;;5090446;28;20047;-82
2023/12/30 03:48:08;;;;;;;9.95;2.65;;;6.70;99.90;;;;;;5091015;28;20098;-82
2023/12/30 03:50:36;;;;;;;7.40;2.75;;;6.60;99.90;;;;;;5091168;28;20494;-83
2023/12/30 03:53:04;;;;;;;16.17;2.97;;;6.60;99.90;;;;;;5092596;28;20128;-81
2023/12/30 03:55:31;;;;;;;12.35;3.15;;;6.60;99.90;;;;;;5095131;28;20075;-81
2023/12/30 03:57:58;;;;;;;12.75;2.60;;;6.60;99.90;;;;;;5095163;28;20051;-81
2023/12/30 04:00:25;;;;;;;12.10;3.47;;;6.60;99.90;;;;;;5096071;28;20040;-81
2023/12/30 04:02:52;;;;;;;9.23;2.20;;;6.60;99.90;;;;;;5095697;28;20098;-81
2023/12/30 04:05:19;;;;;;;9.07;2.55;;;6.60;99.90;;;;;;5095543;28;20059;-81
2023/12/30 04:07:47;;;;;;;9.68;2.35;;;6.70;99.90;;;;;;5092921;28;20044;-81
2023/12/30 04:10:17;;;;;;;11.95;3.03;;;6.60;99.90;;;;;;5095461;28;20048;-81
2023/12/30 04:12:44;;;;;;;10.38;2.53;;;6.50;99.90;;;;;;5095085;28;20063;-77
2023/12/30 04:15:11;;;;;;;8.82;2.97;;;6.50;99.90;;;;;;5094955;28;20044;-78
2023/12/30 04:17:38;;;;;;;10.73;2.85;;;6.40;99.90;;;;;;5094787;28;20089;-77
2023/12/30 04:20:06;;;;;;;12.07;2.72;;;6.30;99.90;;;;;;5092145;28;20052;-77
2023/12/30 04:22:33;;;;;;;11.55;2.60;;;6.30;99.90;;;;;;5094685;28;20093;-78
2023/12/30 04:25:02;;;;;;;8.77;2.25;;;6.20;99.90;;;;;;5094483;28;20125;-78
2023/12/30 04:27:29;;;;;;;7.88;2.63;;;6.70;99.90;;;;;;5091548;28;20067;-77
2023/12/30 04:29:56;;;;;;;7.63;2.17;;;6.30;99.90;;;;;;5094528;28;20056;-78
2023/12/30 04:32:24;;;;;;;8.90;2.75;;;6.40;99.90;;;;;;5094488;28;20048;-77
2023/12/30 04:34:51;;;;;;;18.98;2.55;;;6.40;99.90;;;;;;5094145;28;20048;-77
2023/12/30 04:37:18;;;;;;;9.25;2.38;;;6.40;99.90;;;;;;5094352;28;20113;-78
2023/12/30 04:39:45;;;;;;;8.48;2.40;;;6.50;99.90;;;;;;5094290;28;20438;-77
2023/12/30 04:42:15;;;;;;;11.18;2.33;;;6.50;99.90;;;;;;5093568;28;20052;-76
2023/12/30 04:44:42;;;;;;;10.32;2.50;;;6.50;99.90;;;;;;5094123;28;20040;-75
2023/12/30 04:47:08;;;;;;;9.50;3.03;;;6.60;99.90;;;;;;5092088;28;20048;-75
2023/12/30 04:49:35;;;;;;;10.13;2.53;;;6.80;99.90;;;;;;5093779;28;20109;-75
2023/12/30 04:52:02;;;;;;;13.90;2.88;;;6.70;99.90;;;;;;5094357;28;20071;-77
2023/12/30 04:54:30;;;;;;;9.32;2.58;;;6.70;99.90;;;;;;5093604;28;20068;-76
2023/12/30 04:56:57;;;;;;;9.50;2.70;;;6.70;99.90;;;;;;5093446;28;20131;-78
2023/12/30 04:59:26;;;;;;;11.52;2.40;;;6.70;99.90;;;;;;5094086;28;20052;-78
2023/12/30 05:01:53;;;;;;;9.30;2.45;;;6.70;99.90;;;;;;5093215;28;20044;-76
2023/12/30 05:04:20;;;;;;;9.40;2.63;;;6.70;99.90;;;;;;5093886;28;20484;-77
2023/12/30 05:06:47;;;;;;;10.93;2.60;;;6.70;99.90;;;;;;5091852;28;20078;-77
2023/12/30 05:09:15;;;;;;;7.57;2.00;;;6.70;99.90;;;;;;5093609;28;20082;-77
2023/12/30 05:11:45;;;;;;;8.95;2.65;;;6.70;99.90;;;;;;5093963;28;20048;-77
2023/12/30 05:14:12;;;;;;;12.68;2.75;;;6.70;99.90;;;;;;5091747;28;20071;-81
2023/12/30 05:16:45;;;;;;;12.77;3.20;;;6.70;99.90;;;;;;5093071;28;20048;-80
2023/12/30 05:19:12;;;;;;;15.45;2.42;;;6.60;99.90;;;;;;5093466;28;20521;-83
2023/12/30 05:21:39;;;;;;;6.32;2.20;;;6.60;99.90;;;;;;5094010;28;20464;-83
2023/12/30 05:24:07;;;;;;;8.55;1.90;;;6.60;99.90;;;;;;5093102;28;20055;-86
2023/12/30 05:26:34;;;;;;;12.65;3.15;;;6.60;99.90;;;;;;5094349;28;20097;-87
2023/12/30 05:29:00;;;;;;;11.65;3.20;;;6.50;99.90;;;;;;5092080;28;20059;-86
2023/12/30 05:31:27;;;;;;;10.80;3.17;;;6.50;99.90;;;;;;5093063;28;20088;-81
2023/12/30 05:33:56;;;;;;;9.40;1.98;;;6.50;99.90;;;;;;5093609;28;20059;-78
2023/12/30 05:36:22;;;;;;;10.35;2.67;;;6.40;99.90;;;;;;5093482;28;20094;-79
2023/12/30 05:38:49;;;;;;;10.32;2.88;;;6.40;99.90;;;;;;5092964;28;20442;-79
2023/12/30 05:41:16;;;;;;;12.77;2.78;;;6.30;99.90;;;;;;5091266;28;20060;-78
2023/12/30 05:43:44;;;;;;;11.82;2.47;;;6.30;99.90;;;;;;5093104;28;20048;-78
2023/12/30 05:46:16;;;;;;;15.77;2.85;;;6.30;99.90;;;;;;5092755;28;20051;-82
2023/12/30 05:48:44;;;;;;;11.40;2.40;;;6.30;99.90;;;;;;5093772;28;20129;-81
2023/12/30 05:51:12;;;;;;;8.30;2.42;;;6.40;99.90;;;;;;5093371;28;20048;-81
2023/12/30 05:53:40;;;;;;;10.98;2.72;;;6.40;99.90;;;;;;5093978;28;20105;-82
2023/12/30 05:56:08;;;;;;;11.85;3.38;;;6.40;99.90;;;;;;5091568;28;20127;-83
2023/12/30 05:58:37;;;;;;;7.53;2.58;;;6.50;99.90;;;;;;5085383;28;20048;-81
2023/12/30 06:01:04;;;;;;;12.60;2.97;;;6.50;99.90;;;;;;5091566;28;20056;-81
2023/12/30 06:03:31;;;;;;;11.30;2.80;;;6.50;99.90;;;;;;5085382;28;20093;-82
2023/12/30 06:05:58;;;;;;;10.73;2.50;;;6.40;99.90;;;;;;5089622;28;20097;-80
2023/12/30 06:08:26;;;;;;;12.18;2.25;;;6.40;99.90;;;;;;5090112;28;20040;-79
2023/12/30 06:10:53;;;;;;;14.38;3.05;;;6.40;99.90;;;;;;5092142;28;20113;-80
2023/12/30 06:13:21;;;;;;;7.57;2.30;;;6.50;99.90;;;;;;5090445;28;20041;-81
2023/12/30 06:15:51;;;;;;;10.98;2.30;;;6.50;99.90;;;;;;5090543;28;20086;-81
2023/12/30 06:18:19;;;;;;;11.60;2.80;;;6.50;99.90;;;;;;5091920;28;20557;-80
2023/12/30 06:20:46;;;;;;;11.73;3.08;;;6.50;99.90;;;;;;5089414;28;20071;-81
2023/12/30 06:23:13;;;;;;;13.52;2.78;;;6.50;99.90;;;;;;5089058;28;20056;-80
2023/12/30 06:25:42;;;;;;;11.02;2.53;;;6.50;99.90;;;;;;5092138;28;20052;-80
2023/12/30 06:28:09;;;;;;;15.77;3.45;;;6.50;99.90;;;;;;5089984;28;20124;-81
2023/12/30 06:30:36;;;;;;;12.52;3.38;;;6.50;99.90;;;;;;5091903;28;20109;-81
2023/12/30 06:33:06;;;;;;;9.05;2.65;;;6.50;99.90;;;;;;5092316;28;20431;-84
2023/12/30 06:35:34;;;;;;;14.80;3.10;;;6.50;99.90;;;;;;5089452;28;20238;-83
2023/12/30 06:38:02;;;;;;;11.40;2.38;;;6.50;99.90;;;;;;5091094;28;20526;-84
2023/12/30 06:40:29;;;;;;;11.13;1.85;;;6.90;99.90;;;;;;5091085;28;20048;-83
2023/12/30 06:42:57;;;;;;;17.10;3.22;;;6.60;99.90;;;;;;5087838;28;20048;-84
2023/12/30 06:45:24;;;;;;;7.38;2.45;;;6.60;99.90;;;;;;5092104;28;20130;-84
2023/12/30 06:47:51;;;;;;;7.07;2.38;;;6.60;99.90;;;;;;5090841;28;20044;-85
2023/12/30 06:50:20;;;;;;;13.13;3.05;;;6.50;99.90;;;;;;5089171;28;20051;-78
2023/12/30 06:52:47;;;;;;;10.00;2.65;;;6.50;99.90;;;;;;5091332;28;20099;-84
2023/12/30 06:55:14;;;;;;;14.38;2.95;;;6.40;99.90;;;;;;5090009;28;20051;-80
2023/12/30 06:57:42;;;;;;;10.25;3.10;;;6.40;99.90;;;;;;5091625;28;20040;-82
2023/12/30 07:00:10;;;;;;;13.68;3.53;;;6.30;99.90;;;;;;5091580;28;20044;-81
2023/12/30 07:02:37;;;;;;;11.43;2.75;;;6.20;99.90;;;;;;5106292;28;20053;-81
2023/12/30 07:05:05;;;;;;;16.15;2.28;;;6.10;99.90;;;;;;5090218;28;20055;-81
2023/12/30 07:07:32;;;;;;;7.72;1.90;;;6.30;99.90;;;;;;5089064;28;20051;-82
2023/12/30 07:09:59;;;;;;;11.45;2.60;;;6.20;99.90;;;;;;5089871;28;20056;-80
2023/12/30 07:12:26;;;;;;;9.98;3.05;;;6.20;99.90;;;;;;5090955;28;20051;-82
2023/12/30 07:14:53;;;;;;;11.73;2.72;;;6.20;99.90;;;;;;5090716;28;20177;-82
2023/12/30 07:17:21;;;;;;;17.52;3.05;;;6.30;99.90;;;;;;5089900;28;20047;-82
2023/12/30 07:19:48;;;;;;;8.88;2.28;;;6.30;99.90;;;;;;5090858;28;20106;-81
2023/12/30 07:22:18;;;;;;;8.85;2.72;;;6.30;99.90;;;;;;5091680;28;20381;-81
2023/12/30 07:24:46;;;;;;;14.20;3.20;;;6.30;99.90;;;;;;5090139;28;20097;-85
2023/12/30 07:27:14;;;;;;;7.57;2.55;;;6.30;99.90;;;;;;5088222;28;20527;-82
2023/12/30 07:29:41;;;;;;;10.45;2.53;;;6.20;99.90;;;;;;5089925;28;20052;-82
2023/12/30 07:32:08;;;;;;;15.27;3.17;;;6.20;99.90;;;;;;5088988;28;20048;-83
2023/12/30 07:34:36;;;;;;;10.35;2.50;;;6.20;99.90;;;;;;5089875;28;20051;-84
2023/12/30 07:37:04;;;;;;;6.07;2.28;;;6.20;99.90;;;;;;5086327;28;20075;-84
2023/12/30 07:39:33;;;;;;;12.45;2.42;;;6.20;99.90;;;;;;5090783;28;20046;-83
2023/12/30 07:42:00;;;;;;;8.80;2.55;;;6.30;99.90;;;;;;5091175;28;21660;-85
2023/12/30 07:44:28;;;;;;;10.07;2.63;;;6.30;99.90;;;;;;5091054;28;20469;-85
2023/12/30 07:46:55;;;;;;;6.88;2.53;;;6.30;99.90;;;;;;5090080;28;20119;-81
2023/12/30 07:49:22;;;;;;;13.23;3.20;;;6.30;99.90;;;;;;5088866;28;20408;-82
2023/12/30 07:51:51;;;;;;;9.45;2.78;;;6.30;99.90;;;;;;5091296;28;20063;-82
2023/12/30 07:54:18;;;;;;;12.85;3.40;;;6.30;99.90;;;;;;5092293;28;20427;-83
2023/12/30 07:56:45;;;;;;;25.95;3.17;;;6.30;99.90;;;;;;5089852;28;20843;-81
2023/12/30 07:59:13;;;;;;;9.35;2.90;;;6.40;99.90;;;;;;5090697;28;20071;-83
2023/12/30 08:01:42;;;;;;;10.18;2.13;;;6.40;99.90;;;;;;5089303;28;20044;-84
2023/12/30 08:04:09;;;;;;;11.37;2.57;;;6.40;99.90;;;;;;5091159;28;20143;-85
2023/12/30 08:06:37;;;;;;;12.35;2.78;;;6.40;99.90;;;;;;5084723;28;20052;-85
2023/12/30 08:09:05;;;;;;;10.15;2.47;;;6.40;99.90;;;;;;5088138;28;20048;-84
2023/12/30 08:11:34;;;;;;;9.38;2.20;;;6.40;99.90;;;;;;5088771;28;20048;-83
2023/12/30 08:14:01;;;;;;;9.27;2.63;;;6.30;99.90;;;;;;5088683;28;20056;-83
2023/12/30 08:16:28;;;;;;;9.10;2.50;;;6.30;99.90;;;;;;5090317;28;20040;-84
2023/12/30 08:18:55;;;;;;;10.45;2.97;;;6.40;99.90;;;;;;5088422;28;20071;-85
2023/12/30 08:21:22;;;;;;;15.38;2.70;;;6.30;99.90;;;;;;5087586;28;20143;-85
2023/12/30 08:23:49;;;;;;;11.00;2.88;;;6.30;99.90;;;;;;5089260;28;20086;-82
2023/12/30 08:26:17;;;;;;;11.52;2.42;;;6.30;99.90;;;;;;5088996;28;20458;-83
2023/12/30 08:28:45;;;;;;;9.02;2.83;;;6.40;99.90;;;;;;5089455;28;20093;-82
2023/12/30 08:31:13;;;;;;;9.73;2.53;;;6.40;99.90;;;;;;5088999;28;20059;-79
2023/12/30 08:33:40;;;;;;;10.50;2.33;;;6.50;99.90;;;;;;5089121;28;20492;-81
2023/12/30 08:36:07;;;;;;;14.05;3.00;;;6.60;99.90;;;;;;5090136;28;20048;-82
2023/12/30 08:38:34;;;;;;;13.88;2.22;;;6.70;99.90;;;;;;5090403;28;20068;-80
2023/12/30 08:41:02;;;;;;;9.88;2.50;;;6.80;99.90;;;;;;5092209;28;20109;-80
2023/12/30 08:43:30;;;;;;;9.43;2.50;;;7.00;99.90;;;;;;5091577;28;20434;-80
2023/12/30 08:45:57;;;;;;;19.02;2.42;;;7.20;99.90;;;;;;5093794;28;20051;-83
2023/12/30 08:48:24;;;;;;;6.15;1.90;;;7.30;99.90;;;;;;5092668;28;20040;-83
2023/12/30 08:50:51;;;;;;;9.88;2.30;;;7.40;99.90;;;;;;5093296;28;20047;-83
2023/12/30 08:53:24;;;;;;;8.63;2.30;;;7.50;99.90;;;;;;5092795;28;20063;-82
2023/12/30 08:55:52;;;;;;;12.20;3.13;;;7.60;99.90;;;;;;5093003;28;20083;-82
2023/12/30 08:58:21;;;;;;;11.40;3.28;;;7.70;99.90;;;;;;5089391;28;20059;-83
2023/12/30 09:00:49;;;;;;;13.13;2.78;;;8.00;99.90;;;;;;5093582;28;20075;-84
2023/12/30 09:03:16;;;;;;;8.98;2.75;;;8.20;99.90;;;;;;5092021;28;20557;-84
2023/12/30 09:05:43;;;;;;;9.32;3.00;;;8.40;99.90;;;;;;5093416;28;20048;-82
2023/12/30 09:08:10;;;;;;;9.25;2.72;;;8.60;99.90;;;;;;5092079;28;20147;-83
2023/12/30 09:10:39;;;;;;;8.98;3.00;;;8.50;99.90;;;;;;5093245;28;20105;-81
2023/12/30 09:13:05;;;;;;;14.23;3.00;;;8.40;99.90;;;;;;5085297;28;20086;-81
2023/12/30 09:15:33;;;;;;;9.82;2.90;;;8.40;99.90;;;;;;5086978;28;20437;-81
2023/12/30 09:18:02;;;;;;;7.75;2.40;;;8.50;99.90;;;;;;5091741;28;20047;-81
2023/12/30 09:20:29;;;;;;;7.47;1.83;;;8.50;99.90;;;;;;5087678;28;20052;-81
2023/12/30 09:22:56;;;;;;;11.68;2.30;;;8.30;99.90;;;;;;5091935;28;20079;-81
2023/12/30 09:25:24;;;;;;;7.72;2.53;;;8.30;99.90;;;;;;5090387;28;20782;-81
2023/12/30 09:27:51;;;;;;;10.40;2.28;;;8.70;99.90;;;;;;5107279;28;20629;-82
2023/12/30 09:30:18;;;;;;;6.25;2.28;;;9.20;99.90;;;;;;5090380;28;20113;-83
2023/12/30 09:32:45;;;;;;;10.20;2.08;;;9.00;99.90;;;;;;5090320;28;20497;-83
2023/12/30 09:35:13;;;;;;;10.15;2.28;;;9.00;99.90;;;;;;5089591;28;20077;-83
2023/12/30 09:37:40;;;;;;;12.88;2.75;;;9.10;99.90;;;;;;5090784;28;20048;-83
2023/12/30 09:40:08;;;;;;;13.45;3.35;;;9.40;99.90;;;;;;5090926;28;20056;-83
2023/12/30 09:42:37;;;;;;;6.68;2.03;;;9.60;99.90;;;;;;5092187;28;20040;-82
2023/12/30 09:45:05;;;;;;;13.35;2.28;;;9.90;99.90;;;;;;5092826;28;20456;-81
2023/12/30 09:47:34;;;;;;;11.85;2.78;;;10.00;99.90;;;;;;5092610;28;20044;-82
2023/12/30 09:50:00;;;;;;;10.30;2.83;;;10.20;99.90;;;;;;5088415;28;20098;-82
2023/12/30 09:52:29;;;;;;;8.15;2.33;;;10.20;99.90;;;;;;5085467;28;20048;-82
2023/12/30 09:54:56;;;;;;;10.50;1.90;;;10.00;99.90;;;;;;5092750;28;20116;-81
2023/12/30 09:57:23;;;;;;;7.40;2.60;;;10.40;99.90;;;;;;5091189;28;20074;-83
2023/12/30 09:59:51;;;;;;;8.07;2.38;;;10.50;99.90;;;;;;5091404;28;20105;-82
2023/12/30 10:02:18;;;;;;;8.80;2.03;;;10.80;99.90;;;;;;5089465;28;20078;-82
2023/12/30 10:04:45;;;;;;;15.90;2.63;;;11.10;99.90;;;;;;5089566;28;20044;-82
2023/12/30 10:07:13;;;;;;;9.35;1.88;;;11.00;99.90;;;;;;5088202;28;20529;-82
2023/12/30 10:09:42;;;;;;;9.13;2.58;;;11.40;99.90;;;;;;5089709;28;20496;-82
2023/12/30 10:12:10;;;;;;;9.05;2.53;;;11.30;99.90;;;;;;5086278;28;20160;-83
2023/12/30 10:14:37;;;;;;;13.88;2.70;;;11.80;99.90;;;;;;5086970;28;20186;-83
2023/12/30 10:17:04;;;;;;;7.72;2.40;;;11.90;99.90;;;;;;5088970;28;20047;-83
2023/12/30 10:19:31;;;;;;;19.45;2.55;;;12.20;99.90;;;;;;5086141;28;20045;-82
2023/12/30 10:21:58;;;;;;;7.68;1.80;;;12.30;99.90;;;;;;5089065;28;20059;-82
2023/12/30 10:24:26;;;;;;;8.98;1.95;;;12.70;99.90;;;;;;5091554;28;20044;-82
2023/12/30 10:26:58;;;;;;;9.05;2.45;;;12.70;99.90;;;;;;5090679;28;20389;-83
2023/12/30 10:29:25;;;;;;;6.65;2.13;;;13.20;99.90;;;;;;5088761;28;20044;-83
2023/12/30 10:32:01;;;;;;;12.10;2.58;;;13.10;99.90;;;;;;5091621;28;20270;-83
2023/12/30 10:34:28;;;;;;;10.13;2.30;;;13.20;99.90;;;;;;5090145;28;21038;-83
2023/12/30 10:36:56;;;;;;;6.68;2.08;;;13.00;99.90;;;;;;5091158;28;20127;-83
2023/12/30 10:39:24;;;;;;;9.35;2.15;;;13.20;99.90;;;;;;5088265;28;20040;-84
2023/12/30 10:41:51;;;;;;;11.30;2.50;;;13.10;99.90;;;;;;5090052;28;20040;-83
2023/12/30 10:44:19;;;;;;;11.32;2.30;;;13.40;99.90;;;;;;5091140;28;20083;-83
2023/12/30 10:46:49;;;;;;;8.52;2.15;;;13.70;99.90;;;;;;5089171;28;20078;-82
2023/12/30 10:49:17;;;;;;;8.93;2.23;;;13.60;99.90;;;;;;5091561;28;20507;-87
2023/12/30 10:51:44;;;;;;;6.80;2.35;;;13.20;99.90;;;;;;5091612;28;20083;-84
2023/12/30 10:54:19;;;;;;;9.98;2.28;;;12.90;99.90;;;;;;5088993;28;20094;-85
2023/12/30 10:56:55;;;;;;;9.00;2.20;;;13.10;99.90;;;;;;5089870;28;20151;-82
2023/12/30 10:59:28;;;;;;;4.97;1.90;;;13.50;99.90;;;;;;5089782;28;20051;-82
2023/12/30 11:01:55;;;;;;;6.22;1.95;;;13.60;99.90;;;;;;5089343;28;20053;-82
2023/12/30 11:04:25;;;;;;;12.75;2.60;;;13.70;99.90;;;;;;5091430;28;20095;-82
2023/12/30 11:06:54;;;;;;;9.52;2.00;;;14.10;99.90;;;;;;5091632;28;20451;-82
2023/12/30 11:09:23;;;;;;;13.55;2.42;;;14.20;99.90;;;;;;5090713;28;20407;-82
2023/12/30 11:11:52;;;;;;;8.98;2.47;;;14.00;99.90;;;;;;5090534;28;20055;-82
2023/12/30 11:14:19;;;;;;;8.85;2.00;;;14.10;99.90;;;;;;5091458;28;20048;-82
2023/12/30 11:16:50;;;;;;;9.07;2.03;;;14.00;99.90;;;;;;5090846;28;20086;-82
2023/12/30 11:19:25;;;;;;;;;;;14.00;99.90;;;;;;5092099;28;20040;-81
2023/12/30 11:21:54;;;;;;;7.72;2.33;;;14.10;99.90;;;;;;5089477;28;19977;-81
2023/12/30 11:24:22;;;;;;;8.07;1.90;;;14.10;99.90;;;;;;5091770;28;20059;-82
2023/12/30 11:26:52;;;;;;;7.18;2.17;;;14.30;99.90;;;;;;5091861;28;20048;-82
2023/12/30 11:29:21;;;;;;;7.22;2.08;;;14.50;99.90;;;;;;5092150;28;20067;-82
2023/12/30 11:31:50;;;;;;;7.97;1.80;;;14.40;99.90;;;;;;5092354;28;20044;-83
2023/12/30 11:34:17;;;;;;;5.93;2.15;;;14.60;99.90;;;;;;5090248;28;20048;-83
2023/12/30 11:36:46;;;;;;;7.07;2.05;;;13.70;99.90;;;;;;5091833;28;20125;-82
2023/12/30 11:39:23;;;;;;;13.32;2.10;;;12.90;99.90;;;;;;5093876;28;20044;-81
2023/12/30 11:41:51;;;;;;;12.10;1.83;;;12.10;99.90;;;;;;5093307;28;20052;-80
2023/12/30 11:44:18;;;;;;;10.63;2.10;;;11.40;99.90;;;;;;5091685;28;20044;-82
2023/12/30 11:46:45;;;;;;;6.38;2.35;;;11.20;99.90;;;;;;5091364;28;20048;-82
2023/12/30 11:49:19;;;;;;;7.55;1.70;;;11.20;99.90;;;;;;5091223;28;20051;-82
2023/12/30 11:51:46;;;;;;;9.30;2.72;;;11.70;99.90;;;;;;5089959;28;20496;-82
2023/12/30 11:54:13;;;;;;;10.52;2.33;;;12.40;99.90;;;;;;5089215;28;20058;-82
2023/12/30 11:56:42;;;;;;;7.97;2.60;;;13.00;99.90;;;;;;5090537;28;20415;-81
2023/12/30 11:59:09;;;;;;;8.13;2.22;;;13.40;99.90;;;;;;5090301;28;20183;-83
2023/12/30 12:01:36;;;;;;;6.82;2.53;;;13.50;99.90;;;;;;5082357;28;20044;-82
2023/12/30 12:04:03;;;;;;;7.78;2.40;;;14.10;99.90;;;;;;5088831;28;20079;-82
2023/12/30 12:06:32;;;;;;;14.43;2.70;;;13.80;99.90;;;;;;5088047;28;20056;-82
2023/12/30 12:09:01;;;;;;;7.38;2.10;;;13.10;99.90;;;;;;5084554;28;20117;-82
2023/12/30 12:11:28;;;;;;;5.43;2.15;;;12.20;99.90;;;;;;5090449;28;20063;-81
2023/12/30 12:13:57;;;;;;;11.05;2.38;;;11.50;99.90;;;;;;5088552;28;20048;-81
2023/12/30 12:16:25;;;;;;;9.80;2.53;;;10.90;99.90;;;;;;5093806;28;20052;-81
2023/12/30 12:18:52;;;;;;;9.05;2.33;;;10.40;99.90;;;;;;5093082;28;20044;-82
2023/12/30 12:21:19;;;;;;;7.93;2.95;;;10.00;99.90;;;;;;5093642;28;20052;-82
2023/12/30 12:23:47;;;;;;;7.78;2.67;;;9.70;99.90;;;;;;5093549;28;20044;-81
2023/12/30 12:26:14;;;;;;;11.00;2.67;;;9.40;99.90;;;;;;5090134;28;20446;-81
2023/12/30 12:28:41;;;;;;;9.40;2.22;;;9.30;99.90;;;;;;5091282;28;20036;-80
2023/12/30 12:31:08;;;;;;;9.60;2.33;;;9.40;99.90;;;;;;5093953;28;20052;-81
2023/12/30 12:33:36;;;;;;;9.57;2.80;;;9.20;99.90;;;;;;5093342;28;20059;-81
2023/12/30 12:36:04;;;;;;;12.27;2.88;;;9.20;99.90;;;;;;5094017;28;20082;-80
2023/12/30 12:38:32;;;;;;;5.38;2.25;;;9.10;99.90;;;;;;5091850;28;20065;-81
2023/12/30 12:41:00;;;;;;;10.00;2.78;;;9.10;99.90;;;;;;5091315;28;20056;-81
2023/12/30 12:43:27;;;;;;;11.85;2.70;;;9.00;99.90;;;;;;5093420;28;20048;-81
2023/12/30 12:45:54;;;;;;;9.13;2.67;;;8.90;99.90;;;;;;5093430;28;20520;-81
2023/12/30 12:48:20;;;;;;;9.57;2.10;;;8.80;99.90;;;;;;5083040;28;20069;-81
2023/12/30 12:50:47;;;;;;;8.88;2.35;;;8.80;99.90;;;;;;5091818;28;20051;-82
2023/12/30 12:53:14;;;;;;;10.73;2.85;;;8.60;99.90;;;;;;5092236;28;20048;-81